LCLKLCPH

Guest
Details From LCLK - Larnaca
To LCPH - PAFOS INTL
Flight Number -
Tags generated
Created
Modified
Stats Distance 57 nm / 106 km
Max Altitude 6,400 ft / 1,951 m
Waypoints 4
Social Downloads 1
Likes 0
Share VATSIM

Download

Looking for another format? Having issues loading an existing format? Contact us
Advertisement - Login to hide

Notes

Basic altitude profile: - Ascent Rate: 2500ft/min - Ascent Speed: 250kts - Cruise Altitude: 35000ft - Cruise Speed: 420kts - Descent Rate: 1500ft/min - Descent Speed: 250kts Options: - Use NATs: yes - Use PACOTS: yes - Use low airways: yes - Use high airways: yes

Route

LCLK NORDI W195 PHA LCPH

ID Type Via Altitude Latitude Longitude Leg Dist Tot Dist Heading (true) Name
O LCLK APT - 0 ft / 0 m 34.87512˚ 33.62483˚ - 0 nm - Larnaca
NORDI FIX - 6,400 ft / 1,951 m 34.79667˚ 33.08833˚ 26 nm 26 nm 260° / 260° -
PHA VOR W195 (AWY-LO) 5,000 ft / 1,524 m 34.71167˚ 32.50667˚ 29 nm 56 nm 260° / 260° PAFOS VOR-DME
O LCPH APT - 0 ft / 0 m 34.71804˚ 32.48573˚ 1 nm 57 nm 290° / 290° PAFOS INTL

Altitude Profile

Advertisement - Login to hide

LCLK

Details ICAO LCLK (LCA)
Name Larnaca
Region Cyprus
Timezone Asia/Nicosia (UTC+2.0)
Stats Elevation 8 ft / 2 m (AMSL)
Location 34.875115° 33.624832°
Runways 1
Magnetic Variation 4.990° E

METAR

LCLK 140800Z 05003KT 9999 FEW020 19/09 Q1018 NOSIG

Decode

TAF

TAF LCLK 140530Z 1406/1506 32007KT 9999 FEW030 BECMG 1408/1411 21011KT BECMG 1415/1418 31007KT

Decode

Departure Runways

ID Width Length Bearing (true) Bearing (mag) Surface Threshold Offset Overrun Length
04 148 ft / 45 m 9,771 ft / 2,978 m 45.15° 40.16° Asphalt 0 ft / 0 m 210 ft / 64 m
22 148 ft / 45 m 9,771 ft / 2,978 m 225.17° 220.18° Asphalt 575 ft / 175 m 0 ft / 0 m

LCPH

Details ICAO LCPH (PFO)
Name PAFOS INTL
Region Cyprus
Timezone Asia/Nicosia (UTC+2.0)
Stats Elevation 41 ft / 12 m (AMSL)
Location 34.718038° 32.485731°
Runways 1
Magnetic Variation 4.917° E

METAR

LCPH 140800Z 28012KT 9999 FEW020 SCT030 20/13 Q1019

Decode

TAF

TAF LCPH 140530Z 1406/1506 35008KT 9999 FEW016 SCT020 BECMG 1407/1410 29015KT BECMG 1419/1423 02007KT

Decode

Destination Runways

ID Width Length Bearing (true) Bearing (mag) Surface Threshold Offset Overrun Length
11 148 ft / 45 m 8,854 ft / 2,699 m 110.34° 105.42° Asphalt 0 ft / 0 m 0 ft / 0 m
29 148 ft / 45 m 8,854 ft / 2,699 m 290.36° 285.44° Asphalt 0 ft / 0 m 150 ft / 46 m

Approach Navaids

Runway Type Ident Frequency Range Bearing (true) Bearing (mag) Slope Elevation
29 Localiser IPA 108.90 MHz 18 nm / 33 km 292.21° 287.29° - 73 ft / 22 m (AMSL)
29 Glidescope IPA 108.90 MHz 10 nm / 19 km 290.35° 285.43° 3.00° 73 ft / 22 m (AMSL)
29 DME IPA 108.90 MHz 18 nm / 33 km - - - 73 ft / 22 m (AMSL)

Popular Alternatives